Thunder radar more information blitzortung!


Radar de pluja more information rain snow radar


Visita la nostra xarxa de llocs de meteo:

Template documentation
and downloads

And another site



No particular awareness of the weather is required.    There are no Weather-warnings

Pagina Historial Weather Underground text

Diari Resum Novembre 12, 2017 Unitats:  Mètric    Imperial   Tant
« Previous Dia
SegĂźent Dia »
Diari Setmana Mensual Anual Personalitzada
  Maxima: Minima: Media:
Temperatura: 18.6 °C 7.7 °C 12.3 °C
Punt de rosada: 9.3 °C 2.9 °C 5.9 °C
Humitat: 74 % 53 % 65 %
Wind Speed: 22.5 km/h 0.0 km/h 5.1 km/h
RĂ fegues de vent: 22.5 km/h - -
Vent:- - SSE
Pression baro: 1021.9 hPa 1010.0 hPa -
Precipitacions: 0.0 mm    
Historical Graphs
 
 
Dades de taula per Novembre 12, 2017
Temps Temperatura Punt de rosada Pression baro Vent Wind Speed RĂ fegues de vent Humitat Rainfall Rate (Hourly)
00:04 11.2 °C 5.1 °C 1021.9 hPa NNW 1.9 km/h   66 % 0.0 mm
00:09 11.2 °C 5.1 °C 1021.9 hPa NNW 1.9 km/h   66 % 0.0 mm
00:14 11.1 °C 5.0 °C 1021.9 hPa NNE 3.7 km/h 3.7 km/h 66 % 0.0 mm
00:19 11.0 °C 4.9 °C 1021.9 hPa NE 3.7 km/h 3.7 km/h 66 % 0.0 mm
00:24 11.0 °C 5.1 °C 1021.9 hPa Calm     67 % 0.0 mm
00:29 11.1 °C 5.2 °C 1021.9 hPa NNW 2.6 km/h   67 % 0.0 mm
00:34 11.0 °C 4.9 °C 1021.9 hPa NW 2.6 km/h 2.6 km/h 66 % 0.0 mm
00:39 11.0 °C 5.1 °C 1021.9 hPa Calm     67 % 0.0 mm
00:44 11.0 °C 5.1 °C 1021.9 hPa NNW 2.6 km/h   67 % 0.0 mm
00:49 10.8 °C 4.9 °C 1021.9 hPa NNW 1.9 km/h   67 % 0.0 mm
00:54 10.8 °C 4.9 °C 1021.9 hPa NNE 2.3 km/h   67 % 0.0 mm
00:56 10.8 °C 4.9 °C 1021.9 hPa ENE 3.7 km/h 3.7 km/h 67 % 0.0 mm
01:01 10.8 °C 4.9 °C 1021.9 hPa NE 3.7 km/h 3.7 km/h 67 % 0.0 mm
01:06 10.8 °C 4.9 °C 1021.9 hPa NE 3.7 km/h 3.7 km/h 67 % 0.0 mm
01:11 10.6 °C 4.5 °C 1021.9 hPa NNE 3.9 km/h 3.9 km/h 66 % 0.0 mm
01:16 10.6 °C 4.7 °C 1021.9 hPa NNE 3.7 km/h 3.7 km/h 67 % 0.0 mm
01:21 10.5 °C 4.6 °C 1020.9 hPa NNE 3.7 km/h 3.7 km/h 67 % 0.0 mm
01:26 10.5 °C 4.6 °C 1020.9 hPa NNW 3.7 km/h   67 % 0.0 mm
01:31 10.4 °C 4.6 °C 1020.9 hPa NE 1.9 km/h 1.9 km/h 67 % 0.0 mm
01:36 10.4 °C 4.6 °C 1020.9 hPa North 3.7 km/h 3.7 km/h 67 % 0.0 mm
01:41 10.2 °C 4.3 °C 1020.9 hPa NNE 3.7 km/h 3.7 km/h 67 % 0.0 mm
01:46 10.2 °C 4.3 °C 1020.9 hPa West 3.7 km/h 3.7 km/h 67 % 0.0 mm
01:51 9.9 °C 4.1 °C 1019.9 hPa West 5.6 km/h   67 % 0.0 mm
01:56 10.2 °C 4.3 °C 1019.9 hPa NNW 7.4 km/h 7.4 km/h 67 % 0.0 mm
02:01 10.0 °C 4.2 °C 1019.9 hPa West 3.7 km/h 3.7 km/h 67 % 0.0 mm
02:06 9.9 °C 4.1 °C 1019.9 hPa West 3.7 km/h 3.7 km/h 67 % 0.0 mm
02:11 10.1 °C 4.2 °C 1019.9 hPa West 3.7 km/h   67 % 0.0 mm
02:16 10.1 °C 4.4 °C 1019.9 hPa WNW 1.9 km/h   68 % 0.0 mm
02:21 10.2 °C 4.6 °C 1019.9 hPa NNW 1.9 km/h   68 % 0.0 mm
02:26 10.1 °C 4.4 °C 1019.9 hPa WNW 2.6 km/h   68 % 0.0 mm
02:31 10.1 °C 4.4 °C 1019.9 hPa WNW 2.6 km/h 2.6 km/h 68 % 0.0 mm
02:36 10.0 °C 4.3 °C 1019.9 hPa WNW 3.9 km/h 3.9 km/h 68 % 0.0 mm
02:41 10.0 °C 4.3 °C 1019.9 hPa NE 1.9 km/h 2.3 km/h 68 % 0.0 mm
02:47 9.9 °C 4.3 °C 1019.9 hPa SW 2.3 km/h 2.3 km/h 68 % 0.0 mm
02:52 9.8 °C 4.2 °C 1018.8 hPa WSW 2.6 km/h 2.6 km/h 68 % 0.0 mm
02:57 9.7 °C 4.3 °C 1018.8 hPa SSW 2.3 km/h 2.3 km/h 69 % 0.0 mm
03:02 9.5 °C 4.1 °C 1018.8 hPa Calm     69 % 0.0 mm
03:07 9.4 °C 4.0 °C 1019.9 hPa SSW 1.9 km/h   69 % 0.0 mm
03:12 9.4 °C 4.0 °C 1019.9 hPa SSW 3.7 km/h 3.7 km/h 69 % 0.0 mm
03:17 9.3 °C 3.9 °C 1019.9 hPa SW 3.7 km/h 3.7 km/h 69 % 0.0 mm
03:22 9.2 °C 3.8 °C 1019.9 hPa West 1.9 km/h 1.9 km/h 69 % 0.0 mm
03:27 9.3 °C 4.1 °C 1019.9 hPa Calm     70 % 0.0 mm
03:32 9.3 °C 4.1 °C 1019.9 hPa NNE 3.7 km/h 3.7 km/h 70 % 0.0 mm
03:37 9.4 °C 4.2 °C 1019.9 hPa North 2.6 km/h   70 % 0.0 mm
03:42 9.5 °C 4.3 °C 1019.9 hPa NE 5.6 km/h 5.6 km/h 70 % 0.0 mm
03:47 9.6 °C 4.4 °C 1019.9 hPa Calm     70 % 0.0 mm
03:52 9.5 °C 4.3 °C 1019.9 hPa Calm     70 % 0.0 mm
03:57 9.4 °C 4.2 °C 1019.9 hPa NNE 3.7 km/h 3.7 km/h 70 % 0.0 mm
04:02 9.4 °C 4.2 °C 1019.9 hPa NW 1.9 km/h   70 % 0.0 mm
04:07 9.4 °C 4.2 °C 1019.9 hPa WNW 1.9 km/h   70 % 0.0 mm
04:13 9.4 °C 4.2 °C 1019.9 hPa NE 3.7 km/h 3.7 km/h 70 % 0.0 mm
04:18 9.4 °C 4.2 °C 1019.9 hPa NE 3.7 km/h 3.7 km/h 70 % 0.0 mm
04:23 9.2 °C 4.0 °C 1019.9 hPa ENE 3.7 km/h 3.7 km/h 70 % 0.0 mm
04:24 9.2 °C 4.0 °C 1019.9 hPa NNE 4.2 km/h 4.2 km/h 70 % 0.0 mm
04:25 9.2 °C 4.0 °C 1019.9 hPa NNE 5.6 km/h 5.6 km/h 70 % 0.0 mm
04:28 9.2 °C 4.2 °C 1019.9 hPa North 3.7 km/h 3.7 km/h 71 % 0.0 mm
04:30 9.2 °C 4.0 °C 1019.9 hPa North 5.6 km/h 5.6 km/h 70 % 0.0 mm
04:35 9.2 °C 4.0 °C 1019.9 hPa North 3.7 km/h 3.7 km/h 70 % 0.0 mm
04:40 9.2 °C 4.0 °C 1019.9 hPa WSW 3.7 km/h 3.7 km/h 70 % 0.0 mm
04:45 9.1 °C 4.1 °C 1019.9 hPa Calm     71 % 0.0 mm
04:50 9.0 °C 4.0 °C 1020.9 hPa NNE 2.6 km/h   71 % 0.0 mm
05:00 8.8 °C 3.8 °C 1020.9 hPa NE 1.9 km/h   71 % 0.0 mm
05:05 8.8 °C 4.0 °C 1019.9 hPa NE 1.9 km/h   72 % 0.0 mm
05:10 8.7 °C 3.9 °C 1019.9 hPa Calm     72 % 0.0 mm
05:15 8.6 °C 3.8 °C 1019.9 hPa Calm     72 % 0.0 mm
05:20 8.5 °C 3.7 °C 1019.9 hPa NW 1.9 km/h   72 % 0.0 mm
05:25 8.4 °C 3.7 °C 1019.9 hPa SW 3.5 km/h 3.5 km/h 72 % 0.0 mm
05:30 8.2 °C 3.4 °C 1019.9 hPa SSE 1.9 km/h   72 % 0.0 mm
05:35 8.1 °C 3.3 °C 1019.9 hPa NNE 5.6 km/h 5.6 km/h 72 % 0.0 mm
05:40 8.1 °C 3.6 °C 1019.9 hPa ENE 1.9 km/h   73 % 0.0 mm
05:45 7.8 °C 3.3 °C 1019.9 hPa Calm     73 % 0.0 mm
05:50 7.7 °C 2.9 °C 1018.8 hPa WSW 3.7 km/h 3.7 km/h 72 % 0.0 mm
05:55 7.9 °C 3.3 °C 1018.8 hPa West 3.7 km/h 3.7 km/h 73 % 0.0 mm
06:00 8.1 °C 3.6 °C 1018.8 hPa ENE 5.6 km/h 5.6 km/h 73 % 0.0 mm
06:05 8.5 °C 4.1 °C 1019.9 hPa WNW 5.6 km/h 5.6 km/h 74 % 0.0 mm
06:10 8.6 °C 4.1 °C 1019.9 hPa ENE 5.6 km/h 5.6 km/h 73 % 0.0 mm
06:15 8.6 °C 4.1 °C 1019.9 hPa NNE 3.7 km/h 3.7 km/h 73 % 0.0 mm
06:20 8.7 °C 4.1 °C 1019.9 hPa NNE 5.6 km/h 5.6 km/h 73 % 0.0 mm
06:30 8.7 °C 4.1 °C 1019.9 hPa East 1.9 km/h 2.3 km/h 73 % 0.0 mm
06:35 8.7 °C 4.1 °C 1019.9 hPa NNW 5.6 km/h 5.6 km/h 73 % 0.0 mm
06:40 8.6 °C 4.1 °C 1019.9 hPa NNW 5.6 km/h 5.6 km/h 73 % 0.0 mm
06:45 8.6 °C 4.1 °C 1019.9 hPa NW 5.6 km/h 5.6 km/h 73 % 0.0 mm
06:50 8.7 °C 4.1 °C 1019.9 hPa ENE 5.6 km/h 5.6 km/h 73 % 0.0 mm
06:55 8.7 °C 4.1 °C 1019.9 hPa NNW 5.6 km/h 5.6 km/h 73 % 0.0 mm
07:00 8.7 °C 4.1 °C 1019.9 hPa NNW 3.7 km/h 3.7 km/h 73 % 0.0 mm
07:05 8.6 °C 4.1 °C 1019.9 hPa WNW 3.7 km/h 3.7 km/h 73 % 0.0 mm
07:10 8.5 °C 3.9 °C 1019.9 hPa WNW 3.7 km/h 3.7 km/h 73 % 0.0 mm
07:15 8.5 °C 3.9 °C 1019.9 hPa NNW 5.6 km/h 5.6 km/h 73 % 0.0 mm
07:20 8.4 °C 3.8 °C 1019.9 hPa WNW 1.9 km/h 1.9 km/h 73 % 0.0 mm
07:21 8.3 °C 3.7 °C 1019.9 hPa West 1.9 km/h 1.9 km/h 73 % 0.0 mm
07:26 8.3 °C 3.7 °C 1019.9 hPa NNE 3.9 km/h 3.9 km/h 73 % 0.0 mm
07:27 8.3 °C 3.7 °C 1019.9 hPa NW 3.7 km/h 3.7 km/h 73 % 0.0 mm
07:32 8.2 °C 3.8 °C 1019.9 hPa ENE 3.7 km/h 3.7 km/h 74 % 0.0 mm
07:37 8.3 °C 3.9 °C 1019.9 hPa NE 3.7 km/h 3.7 km/h 74 % 0.0 mm
07:42 8.4 °C 4.1 °C 1019.9 hPa East 3.7 km/h 3.7 km/h 74 % 0.0 mm
07:43 8.4 °C 4.1 °C 1019.9 hPa ENE 3.7 km/h 3.7 km/h 74 % 0.0 mm
07:48 8.6 °C 4.2 °C 1019.9 hPa NE 7.6 km/h 7.6 km/h 74 % 0.0 mm
07:53 8.7 °C 4.3 °C 1019.9 hPa NNE 7.6 km/h 7.6 km/h 74 % 0.0 mm
07:58 8.8 °C 4.4 °C 1019.9 hPa WSW 2.6 km/h   74 % 0.0 mm
08:03 8.9 °C 4.5 °C 1019.9 hPa WSW 1.9 km/h   74 % 0.0 mm
08:08 8.8 °C 4.4 °C 1019.9 hPa NW 1.9 km/h   74 % 0.0 mm
08:13 9.0 °C 4.6 °C 1019.9 hPa NW 1.9 km/h   74 % 0.0 mm
08:18 9.3 °C 4.9 °C 1019.9 hPa ENE 3.7 km/h 3.7 km/h 74 % 0.0 mm
08:23 9.2 °C 4.6 °C 1019.9 hPa SW 3.7 km/h 3.7 km/h 73 % 0.0 mm
08:28 9.5 °C 4.9 °C 1019.9 hPa NNE 2.3 km/h 2.3 km/h 73 % 0.0 mm
08:33 9.9 °C 5.3 °C 1019.9 hPa North 3.7 km/h 3.7 km/h 73 % 0.0 mm
08:38 10.1 °C 5.5 °C 1019.9 hPa ENE 3.7 km/h 3.7 km/h 73 % 0.0 mm
08:43 10.4 °C 5.6 °C 1019.9 hPa WNW 3.7 km/h 3.7 km/h 72 % 0.0 mm
08:48 10.7 °C 5.8 °C 1019.9 hPa ENE 2.6 km/h 2.6 km/h 72 % 0.0 mm
08:53 11.0 °C 6.2 °C 1019.9 hPa West 3.7 km/h 3.7 km/h 72 % 0.0 mm
08:58 11.0 °C 5.9 °C 1019.9 hPa ENE 5.0 km/h 5.0 km/h 71 % 0.0 mm
09:03 11.2 °C 6.1 °C 1019.9 hPa NNW 3.7 km/h 3.7 km/h 71 % 0.0 mm
09:08 11.5 °C 6.4 °C 1019.9 hPa NW 3.7 km/h 3.7 km/h 71 % 0.0 mm
09:13 11.4 °C 6.1 °C 1019.9 hPa NE 5.6 km/h 5.6 km/h 70 % 0.0 mm
09:18 11.6 °C 6.1 °C 1019.9 hPa North 5.6 km/h 5.6 km/h 69 % 0.0 mm
09:23 11.7 °C 6.2 °C 1019.9 hPa ENE 5.6 km/h 5.6 km/h 69 % 0.0 mm
09:28 12.1 °C 6.6 °C 1019.9 hPa NNE 1.9 km/h   69 % 0.0 mm
09:34 12.2 °C 6.7 °C 1019.9 hPa NNE 3.7 km/h 4.2 km/h 69 % 0.0 mm
09:39 12.2 °C 6.4 °C 1019.9 hPa NNE 7.4 km/h 7.4 km/h 68 % 0.0 mm
09:44 12.1 °C 6.4 °C 1019.9 hPa NNE 9.0 km/h 9.0 km/h 68 % 0.0 mm
09:49 12.0 °C 6.3 °C 1019.9 hPa North 8.7 km/h 8.7 km/h 68 % 0.0 mm
09:54 12.0 °C 6.3 °C 1018.8 hPa ENE 7.4 km/h 7.4 km/h 68 % 0.0 mm
09:59 12.2 °C 6.4 °C 1018.8 hPa ENE 7.4 km/h 7.4 km/h 68 % 0.0 mm
10:04 12.4 °C 6.4 °C 1018.8 hPa NNE 10.0 km/h 10.0 km/h 67 % 0.0 mm
10:09 12.4 °C 6.4 °C 1019.9 hPa ENE 9.5 km/h 9.5 km/h 67 % 0.0 mm
10:14 12.9 °C 6.9 °C 1019.9 hPa NE 3.7 km/h 3.7 km/h 67 % 0.0 mm
10:19 13.1 °C 7.1 °C 1019.9 hPa ENE 5.6 km/h 5.6 km/h 67 % 0.0 mm
10:24 13.3 °C 7.3 °C 1019.9 hPa NNE 5.6 km/h 5.6 km/h 67 % 0.0 mm
10:29 13.6 °C 7.6 °C 1019.9 hPa NW 5.6 km/h 5.6 km/h 67 % 0.0 mm
10:34 14.0 °C 7.7 °C 1019.9 hPa WSW 5.0 km/h 5.0 km/h 66 % 0.0 mm
10:39 14.2 °C 7.7 °C 1019.9 hPa West 7.4 km/h 7.4 km/h 65 % 0.0 mm
10:44 14.2 °C 7.7 °C 1019.9 hPa NNE 7.4 km/h 7.4 km/h 65 % 0.0 mm
10:49 14.2 °C 7.7 °C 1019.9 hPa West 7.9 km/h 7.9 km/h 65 % 0.0 mm
10:54 14.4 °C 7.7 °C 1019.9 hPa West 3.7 km/h 3.7 km/h 64 % 0.0 mm
10:59 14.7 °C 7.9 °C 1019.9 hPa North 5.6 km/h 5.6 km/h 64 % 0.0 mm
11:04 14.6 °C 7.9 °C 1019.9 hPa NNW 9.3 km/h 9.3 km/h 64 % 0.0 mm
11:09 14.8 °C 7.8 °C 1019.9 hPa South 6.4 km/h 6.4 km/h 63 % 0.0 mm
11:14 14.9 °C 7.9 °C 1019.9 hPa WSW 5.6 km/h 5.6 km/h 63 % 0.0 mm
11:19 15.0 °C 8.0 °C 1019.9 hPa WNW 6.9 km/h 6.9 km/h 63 % 0.0 mm
11:24 15.1 °C 8.1 °C 1019.9 hPa WNW 5.8 km/h 7.6 km/h 63 % 0.0 mm
11:29 15.1 °C 7.9 °C 1019.9 hPa WNW 7.4 km/h 7.4 km/h 62 % 0.0 mm
11:34 15.2 °C 7.9 °C 1019.9 hPa NNW 5.6 km/h 5.6 km/h 62 % 0.0 mm
11:39 15.2 °C 7.9 °C 1019.9 hPa NW 5.6 km/h 5.6 km/h 62 % 0.0 mm
11:44 14.8 °C 7.3 °C 1019.9 hPa ENE 9.3 km/h 9.5 km/h 61 % 0.0 mm
11:49 14.4 °C 6.9 °C 1019.9 hPa NNE 9.3 km/h 9.3 km/h 61 % 0.0 mm
11:54 14.3 °C 6.9 °C 1019.9 hPa NE 14.8 km/h 14.8 km/h 61 % 0.0 mm
11:59 14.2 °C 6.8 °C 1019.9 hPa East 9.3 km/h 9.3 km/h 61 % 0.0 mm
12:04 14.2 °C 6.8 °C 1019.9 hPa WNW 13.0 km/h 13.0 km/h 61 % 0.0 mm
12:09 14.5 °C 7.3 °C 1018.8 hPa ENE 6.4 km/h 6.4 km/h 62 % 0.0 mm
12:14 14.6 °C 7.2 °C 1018.8 hPa NNW 5.6 km/h 5.6 km/h 61 % 0.0 mm
12:19 14.7 °C 7.3 °C 1018.8 hPa ENE 9.3 km/h 9.3 km/h 61 % 0.0 mm
12:24 14.5 °C 7.1 °C 1018.8 hPa NNE 9.0 km/h 9.0 km/h 61 % 0.0 mm
12:29 14.6 °C 7.2 °C 1018.8 hPa NE 5.8 km/h 5.8 km/h 61 % 0.0 mm
12:34 14.6 °C 7.2 °C 1018.8 hPa ESE 9.5 km/h 9.5 km/h 61 % 0.0 mm
12:39 14.5 °C 7.1 °C 1018.8 hPa NNE 9.3 km/h 9.3 km/h 61 % 0.0 mm
12:44 14.6 °C 7.2 °C 1018.8 hPa NE 18.5 km/h 18.5 km/h 61 % 0.0 mm
12:49 14.4 °C 6.9 °C 1018.8 hPa NNE 11.1 km/h 11.1 km/h 61 % 0.0 mm
12:54 14.5 °C 7.1 °C 1017.8 hPa NNE 11.9 km/h 11.9 km/h 61 % 0.0 mm
12:59 14.6 °C 7.2 °C 1017.8 hPa ENE 13.0 km/h 13.0 km/h 61 % 0.0 mm
13:04 14.7 °C 7.3 °C 1017.8 hPa ENE 11.1 km/h 11.1 km/h 61 % 0.0 mm
13:09 14.7 °C 7.3 °C 1017.8 hPa ENE 10.0 km/h 10.0 km/h 61 % 0.0 mm
13:14 14.6 °C 7.2 °C 1017.8 hPa NNE 9.3 km/h 9.3 km/h 61 % 0.0 mm
13:19 14.6 °C 7.2 °C 1017.8 hPa ENE 7.4 km/h 7.4 km/h 61 % 0.0 mm
13:24 14.5 °C 7.1 °C 1017.8 hPa NE 7.9 km/h 7.9 km/h 61 % 0.0 mm
13:29 14.5 °C 7.1 °C 1017.8 hPa NE 13.0 km/h 13.0 km/h 61 % 0.0 mm
13:34 14.4 °C 6.7 °C 1017.8 hPa NNE 13.7 km/h 13.7 km/h 60 % 0.0 mm
13:39 14.5 °C 7.1 °C 1017.8 hPa NNE 7.4 km/h 7.4 km/h 61 % 0.0 mm
13:44 14.7 °C 7.3 °C 1017.8 hPa NNE 8.7 km/h 8.7 km/h 61 % 0.0 mm
13:49 14.7 °C 7.3 °C 1017.8 hPa NNE 7.4 km/h 7.4 km/h 61 % 0.0 mm
13:54 14.7 °C 7.3 °C 1017.8 hPa NNE 13.0 km/h 13.0 km/h 61 % 0.0 mm
13:59 14.7 °C 7.3 °C 1017.8 hPa NNE 3.7 km/h 3.9 km/h 61 % 0.0 mm
14:04 14.9 °C 7.4 °C 1015.8 hPa NNE 9.3 km/h 9.3 km/h 61 % 0.0 mm
14:09 14.9 °C 7.4 °C 1015.8 hPa North 9.3 km/h 9.3 km/h 61 % 0.0 mm
14:14 15.0 °C 7.6 °C 1015.8 hPa NNE 6.4 km/h 6.4 km/h 61 % 0.0 mm
14:19 15.2 °C 7.7 °C 1015.8 hPa NE 7.4 km/h 7.4 km/h 61 % 0.0 mm
14:24 15.1 °C 7.4 °C 1015.8 hPa ESE 7.4 km/h 7.4 km/h 60 % 0.0 mm
14:29 15.2 °C 7.5 °C 1015.8 hPa NE 5.8 km/h 5.8 km/h 60 % 0.0 mm
14:30 15.2 °C 7.7 °C 1015.8 hPa NE 5.6 km/h 5.6 km/h 61 % 0.0 mm
14:35 15.2 °C 7.5 °C 1014.8 hPa NNE 11.1 km/h 11.1 km/h 60 % 0.0 mm
14:40 15.2 °C 7.5 °C 1014.8 hPa NNE 5.6 km/h 5.6 km/h 60 % 0.0 mm
14:45 15.4 °C 7.7 °C 1014.8 hPa NNE 11.1 km/h 11.1 km/h 60 % 0.0 mm
14:50 15.5 °C 7.8 °C 1014.8 hPa NW 9.3 km/h 9.3 km/h 60 % 0.0 mm
14:55 15.5 °C 7.8 °C 1014.8 hPa NNE 9.3 km/h 9.3 km/h 60 % 0.0 mm
15:00 15.6 °C 7.8 °C 1014.8 hPa ENE 5.6 km/h 5.6 km/h 60 % 0.0 mm
15:05 16.2 °C 8.4 °C 1014.8 hPa SW 3.7 km/h 3.7 km/h 60 % 0.0 mm
15:09 16.7 °C 8.9 °C 1014.8 hPa SSW 7.4 km/h 7.4 km/h 60 % 0.0 mm
15:14 17.7 °C 9.3 °C 1014.8 hPa WNW 7.4 km/h 7.4 km/h 58 % 0.0 mm
15:19 18.0 °C 9.1 °C 1015.8 hPa WNW 9.3 km/h 9.3 km/h 56 % 0.0 mm
15:24 18.0 °C 8.8 °C 1015.8 hPa SW 3.7 km/h 3.7 km/h 55 % 0.0 mm
15:29 18.1 °C 8.9 °C 1015.8 hPa West 9.3 km/h 9.3 km/h 55 % 0.0 mm
15:34 18.2 °C 8.7 °C 1015.8 hPa NE 3.7 km/h 3.7 km/h 54 % 0.0 mm
15:39 18.4 °C 8.9 °C 1015.8 hPa WSW 5.6 km/h 5.6 km/h 54 % 0.0 mm
15:49 18.5 °C 9.0 °C 1015.8 hPa WSW 1.9 km/h 1.9 km/h 54 % 0.0 mm
15:54 18.6 °C 9.1 °C 1015.8 hPa SW 5.6 km/h 5.6 km/h 54 % 0.0 mm
15:59 18.5 °C 8.7 °C 1015.8 hPa East 3.7 km/h 3.7 km/h 53 % 0.0 mm
16:04 17.9 °C 8.2 °C 1015.8 hPa NNW 3.7 km/h 3.7 km/h 53 % 0.0 mm
16:09 17.2 °C 7.8 °C 1015.8 hPa NNW 5.6 km/h 5.6 km/h 54 % 0.0 mm
16:14 17.1 °C 7.7 °C 1015.8 hPa NW 3.7 km/h 3.7 km/h 54 % 0.0 mm
16:19 16.8 °C 7.7 °C 1014.8 hPa NNE 5.6 km/h 5.6 km/h 55 % 0.0 mm
16:24 16.6 °C 7.5 °C 1014.8 hPa NNE 6.4 km/h 6.4 km/h 55 % 0.0 mm
16:29 16.1 °C 7.3 °C 1014.8 hPa SE 5.6 km/h 5.6 km/h 56 % 0.0 mm
16:34 15.9 °C 7.1 °C 1014.8 hPa ENE 9.3 km/h 9.3 km/h 56 % 0.0 mm
16:39 15.8 °C 7.1 °C 1014.8 hPa NE 3.7 km/h 3.7 km/h 56 % 0.0 mm
16:44 15.6 °C 6.8 °C 1014.8 hPa ENE 3.9 km/h 3.9 km/h 56 % 0.0 mm
16:49 15.6 °C 7.1 °C 1015.8 hPa ENE 7.4 km/h 7.4 km/h 57 % 0.0 mm
16:54 15.5 °C 7.0 °C 1015.8 hPa NE 5.6 km/h 5.6 km/h 57 % 0.0 mm
16:59 15.2 °C 6.7 °C 1015.8 hPa NE 5.6 km/h 5.6 km/h 57 % 0.0 mm
17:04 15.1 °C 6.6 °C 1014.8 hPa NNE 3.7 km/h 3.7 km/h 57 % 0.0 mm
17:09 14.9 °C 6.7 °C 1014.8 hPa NNE 5.6 km/h 5.6 km/h 58 % 0.0 mm
17:14 14.8 °C 6.6 °C 1014.8 hPa ESE 1.9 km/h   58 % 0.0 mm
17:19 14.9 °C 6.7 °C 1014.8 hPa SW 3.7 km/h 3.7 km/h 58 % 0.0 mm
17:24 14.8 °C 6.8 °C 1014.8 hPa Calm     59 % 0.0 mm
17:29 14.7 °C 6.8 °C 1014.8 hPa WNW 2.6 km/h 2.6 km/h 59 % 0.0 mm
17:34 14.6 °C 6.7 °C 1014.8 hPa SW 3.7 km/h 3.7 km/h 59 % 0.0 mm
17:39 14.4 °C 6.7 °C 1014.8 hPa West 3.7 km/h 3.7 km/h 60 % 0.0 mm
17:44 14.4 °C 6.7 °C 1014.8 hPa Calm     60 % 0.0 mm
17:49 14.3 °C 6.6 °C 1013.8 hPa WSW 3.9 km/h 3.9 km/h 60 % 0.0 mm
17:54 14.1 °C 6.4 °C 1013.8 hPa WNW 3.7 km/h 3.7 km/h 60 % 0.0 mm
17:59 14.2 °C 6.6 °C 1013.8 hPa NNE 3.7 km/h 3.7 km/h 60 % 0.0 mm
18:04 13.8 °C 6.4 °C 1014.8 hPa NNE 5.6 km/h 5.6 km/h 61 % 0.0 mm
18:09 13.6 °C 6.2 °C 1014.8 hPa ENE 4.7 km/h 4.7 km/h 61 % 0.0 mm
18:14 13.6 °C 6.4 °C 1014.8 hPa NNE 7.4 km/h 7.4 km/h 62 % 0.0 mm
18:19 13.6 °C 6.4 °C 1014.8 hPa ENE 5.6 km/h 5.6 km/h 62 % 0.0 mm
18:24 13.4 °C 6.3 °C 1014.8 hPa North 4.2 km/h 4.2 km/h 62 % 0.0 mm
18:29 13.4 °C 6.3 °C 1014.8 hPa NNE 3.7 km/h 3.7 km/h 62 % 0.0 mm
18:34 13.3 °C 6.2 °C 1014.8 hPa NNE 1.9 km/h   62 % 0.0 mm
18:39 13.3 °C 6.2 °C 1014.8 hPa WNW 3.7 km/h 3.7 km/h 62 % 0.0 mm
18:44 13.2 °C 6.1 °C 1014.8 hPa Calm     62 % 0.0 mm
18:49 13.2 °C 6.1 °C 1014.8 hPa NNE 1.9 km/h 1.9 km/h 62 % 0.0 mm
18:54 13.1 °C 6.2 °C 1014.8 hPa NNE 1.9 km/h 1.9 km/h 63 % 0.0 mm
18:55 13.1 °C 6.2 °C 1014.8 hPa NNE 1.9 km/h   63 % 0.0 mm
19:00 12.9 °C 6.0 °C 1014.8 hPa Calm     63 % 0.0 mm
19:05 12.9 °C 6.0 °C 1014.8 hPa Calm     63 % 0.0 mm
19:10 12.8 °C 5.9 °C 1014.8 hPa WNW 1.9 km/h   63 % 0.0 mm
19:15 12.5 °C 5.9 °C 1014.8 hPa WSW 2.6 km/h 2.6 km/h 64 % 0.0 mm
19:20 12.5 °C 5.9 °C 1013.8 hPa Calm     64 % 0.0 mm
19:25 12.4 °C 5.8 °C 1013.8 hPa West 1.9 km/h 1.9 km/h 64 % 0.0 mm
19:30 12.5 °C 5.9 °C 1013.8 hPa West 3.7 km/h 3.7 km/h 64 % 0.0 mm
19:35 12.6 °C 5.9 °C 1013.8 hPa WSW 3.7 km/h 3.7 km/h 64 % 0.0 mm
19:40 12.5 °C 5.9 °C 1013.8 hPa West 2.3 km/h 2.3 km/h 64 % 0.0 mm
19:45 12.4 °C 5.8 °C 1013.8 hPa West 1.9 km/h   64 % 0.0 mm
19:50 12.4 °C 6.0 °C 1013.8 hPa West 2.6 km/h 2.6 km/h 65 % 0.0 mm
19:55 12.4 °C 5.8 °C 1013.8 hPa SW 5.6 km/h 5.6 km/h 64 % 0.0 mm
20:00 12.4 °C 6.0 °C 1013.8 hPa WSW 3.2 km/h   65 % 0.0 mm
20:05 12.3 °C 5.9 °C 1013.8 hPa WNW 3.7 km/h 3.7 km/h 65 % 0.0 mm
20:10 12.4 °C 6.0 °C 1013.8 hPa West 1.9 km/h   65 % 0.0 mm
20:15 12.3 °C 5.9 °C 1013.8 hPa WNW 3.9 km/h 3.9 km/h 65 % 0.0 mm
20:20 12.4 °C 6.0 °C 1013.8 hPa WSW 5.6 km/h 5.6 km/h 65 % 0.0 mm
20:21 12.4 °C 6.0 °C 1013.8 hPa SW 5.6 km/h 5.6 km/h 65 % 0.0 mm
20:26 12.8 °C 6.2 °C 1013.8 hPa West 3.7 km/h 3.7 km/h 64 % 0.0 mm
20:31 13.1 °C 6.4 °C 1013.8 hPa WSW 5.6 km/h 5.6 km/h 64 % 0.0 mm
20:36 13.2 °C 6.6 °C 1013.8 hPa West 5.6 km/h 5.6 km/h 64 % 0.0 mm
20:41 13.5 °C 6.6 °C 1013.8 hPa WSW 9.3 km/h 9.3 km/h 63 % 0.0 mm
20:46 13.7 °C 6.8 °C 1013.8 hPa West 7.4 km/h 7.4 km/h 63 % 0.0 mm
20:51 13.7 °C 6.8 °C 1012.8 hPa WSW 7.4 km/h 7.4 km/h 63 % 0.0 mm
20:56 13.7 °C 6.6 °C 1012.8 hPa WSW 6.9 km/h 6.9 km/h 62 % 0.0 mm
21:06 13.7 °C 6.6 °C 1012.8 hPa West 5.6 km/h 5.6 km/h 62 % 0.0 mm
21:11 13.5 °C 6.3 °C 1012.8 hPa West 7.4 km/h 7.4 km/h 62 % 0.0 mm
21:16 13.6 °C 6.4 °C 1012.8 hPa WSW 5.6 km/h 5.6 km/h 62 % 0.0 mm
21:21 13.5 °C 6.3 °C 1012.8 hPa WSW 3.5 km/h   62 % 0.0 mm
21:26 13.4 °C 6.3 °C 1012.8 hPa WSW 2.3 km/h 2.3 km/h 62 % 0.0 mm
21:31 13.4 °C 6.3 °C 1012.8 hPa SW 1.9 km/h   62 % 0.0 mm
21:36 13.2 °C 6.1 °C 1011.7 hPa Calm     62 % 0.0 mm
21:41 13.1 °C 6.0 °C 1011.7 hPa NNE 3.2 km/h 3.2 km/h 62 % 0.0 mm
21:46 13.1 °C 6.0 °C 1011.7 hPa NW 3.7 km/h 3.7 km/h 62 % 0.0 mm
21:51 13.0 °C 5.9 °C 1011.7 hPa NNW 5.6 km/h 5.6 km/h 62 % 0.0 mm
21:56 12.8 °C 5.7 °C 1011.7 hPa West 3.7 km/h 3.7 km/h 62 % 0.0 mm
22:01 12.5 °C 5.4 °C 1011.7 hPa SW 3.7 km/h 3.7 km/h 62 % 0.0 mm
22:06 12.5 °C 5.4 °C 1011.7 hPa WSW 4.2 km/h   62 % 0.0 mm
22:11 12.2 °C 5.3 °C 1011.7 hPa WNW 4.2 km/h 4.2 km/h 63 % 0.0 mm
22:16 12.4 °C 5.6 °C 1011.7 hPa WSW 5.6 km/h 5.6 km/h 63 % 0.0 mm
22:21 12.7 °C 5.8 °C 1011.7 hPa WSW 5.6 km/h 5.6 km/h 63 % 0.0 mm
22:23 12.7 °C 5.8 °C 1011.7 hPa WSW 7.4 km/h 7.4 km/h 63 % 0.0 mm
22:26 12.7 °C 5.8 °C 1011.7 hPa NNW 3.9 km/h 3.9 km/h 63 % 0.0 mm
22:31 12.7 °C 5.8 °C 1011.7 hPa West 5.8 km/h 5.8 km/h 63 % 0.0 mm
22:36 12.7 °C 5.8 °C 1011.7 hPa WSW 7.4 km/h 7.4 km/h 63 % 0.0 mm
22:41 12.7 °C 5.8 °C 1011.7 hPa WNW 5.6 km/h 5.6 km/h 63 % 0.0 mm
22:46 12.7 °C 5.8 °C 1011.7 hPa SSE 3.7 km/h 3.7 km/h 63 % 0.0 mm
22:51 12.8 °C 5.9 °C 1011.7 hPa SSW 3.7 km/h 3.7 km/h 63 % 0.0 mm
22:56 12.7 °C 5.8 °C 1011.7 hPa WNW 3.7 km/h   63 % 0.0 mm
23:01 12.7 °C 5.8 °C 1011.7 hPa WSW 3.7 km/h 3.7 km/h 63 % 0.0 mm
23:06 12.8 °C 5.9 °C 1010.7 hPa NNW 9.5 km/h 9.5 km/h 63 % 0.0 mm
23:11 12.8 °C 5.9 °C 1010.7 hPa NW 3.9 km/h 3.9 km/h 63 % 0.0 mm
23:16 12.9 °C 6.0 °C 1010.7 hPa South 9.3 km/h 9.3 km/h 63 % 0.0 mm
23:21 13.0 °C 6.1 °C 1010.7 hPa SW 14.8 km/h 14.8 km/h 63 % 0.0 mm
23:26 13.2 °C 6.6 °C 1010.7 hPa West 14.8 km/h 14.8 km/h 64 % 0.0 mm
23:31 13.3 °C 6.6 °C 1010.7 hPa WSW 13.0 km/h 13.0 km/h 64 % 0.0 mm
23:36 13.4 °C 6.7 °C 1010.7 hPa WSW 13.0 km/h 13.0 km/h 64 % 0.0 mm
23:41 13.4 °C 6.7 °C 1010.7 hPa WNW 22.5 km/h 22.5 km/h 64 % 0.0 mm
23:46 13.4 °C 6.7 °C 1010.7 hPa SW 14.8 km/h 14.8 km/h 64 % 0.0 mm
23:51 13.4 °C 6.7 °C 1010.0 hPa West 14.8 km/h 14.8 km/h 64 % 0.0 mm
23:56 13.3 °C 6.6 °C 1010.0 hPa West 7.4 km/h 7.4 km/h 64 % 0.0 mm
Meteo Sesrovires
Elogis d' Weather Underground - 4 mb

Guio original per  Jim McMurry - jmcmurry@mwt.net Adaptat per a la plantilla per  Wim van der Kuil - Leuven-Template.eu

Trobareu la nostra informacio del temps tambe a:

Weather Underground

AWEKAS